createdAt,value
2018-10-11T00:01:56.466Z,14.30
2018-10-11T00:04:24.801Z,14.75
2018-10-11T00:06:52.964Z,15.45
2018-10-11T00:09:21.122Z,15.70
2018-10-11T00:11:49.782Z,15.60
2018-10-11T00:14:17.854Z,15.05
2018-10-11T00:16:46.270Z,17.02
2018-10-11T00:19:15.022Z,16.12
2018-10-11T00:21:44.297Z,15.72
2018-10-11T00:24:13.180Z,15.10
2018-10-11T00:26:41.537Z,14.55
2018-10-11T00:29:09.539Z,15.20
2018-10-11T00:31:37.570Z,15.50
2018-10-11T00:34:05.749Z,14.95
2018-10-11T00:36:33.410Z,14.63
2018-10-11T00:39:01.173Z,13.85
2018-10-11T00:41:29.026Z,14.75
2018-10-11T00:43:56.733Z,16.80
2018-10-11T00:46:24.442Z,16.77
2018-10-11T00:48:52.289Z,15.50
2018-10-11T00:51:20.293Z,16.45
2018-10-11T00:53:47.999Z,15.70
2018-10-11T00:56:15.674Z,17.12
2018-10-11T00:58:43.568Z,18.37
2018-10-11T01:01:11.290Z,15.70
2018-10-11T01:03:39.533Z,15.20
2018-10-11T01:06:07.881Z,16.87
2018-10-11T01:08:36.146Z,15.38
2018-10-11T01:11:03.811Z,15.53
2018-10-11T01:13:31.578Z,16.70
2018-10-11T01:15:59.140Z,16.35
2018-10-11T01:18:28.345Z,15.80
2018-10-11T01:20:55.987Z,15.95
2018-10-11T01:23:23.770Z,16.30
2018-10-11T01:25:51.504Z,17.62
2018-10-11T01:28:20.129Z,17.10
2018-10-11T01:30:53.531Z,18.37
2018-10-11T01:33:21.337Z,16.57
2018-10-11T01:35:49.028Z,17.00
2018-10-11T01:38:16.691Z,15.78
2018-10-11T01:40:44.430Z,18.42
2018-10-11T01:43:12.148Z,17.62
2018-10-11T01:45:39.797Z,17.42
2018-10-11T01:48:07.708Z,17.10
2018-10-11T01:50:35.401Z,16.70
2018-10-11T01:53:04.882Z,15.38
2018-10-11T01:55:32.643Z,16.62
2018-10-11T01:58:00.391Z,18.07
2018-10-11T02:00:28.083Z,18.95
2018-10-11T02:02:57.289Z,15.72
2018-10-11T02:05:25.514Z,17.00
2018-10-11T02:07:53.749Z,17.45
2018-10-11T02:10:21.421Z,17.45
2018-10-11T02:12:50.063Z,16.57
2018-10-11T02:15:18.004Z,20.08
2018-10-11T02:17:45.661Z,19.30
2018-10-11T02:20:13.431Z,18.50
2018-10-11T02:22:41.531Z,19.57
2018-10-11T02:25:10.130Z,17.90
2018-10-11T02:27:38.008Z,19.60
2018-10-11T02:30:05.807Z,19.00
2018-10-11T02:32:33.547Z,18.30
2018-10-11T02:35:01.312Z,19.02
2018-10-11T02:37:28.932Z,20.95
2018-10-11T02:39:56.586Z,20.35
2018-10-11T02:42:24.911Z,20.15
2018-10-11T02:44:52.591Z,20.50
2018-10-11T02:47:20.164Z,19.17
2018-10-11T02:49:47.878Z,19.62
2018-10-11T02:52:16.452Z,20.02
2018-10-11T02:54:44.275Z,19.02
2018-10-11T02:57:23.120Z,20.97
2018-10-11T02:59:51.408Z,24.25
2018-10-11T03:02:19.094Z,24.10
2018-10-11T03:04:47.670Z,22.10
2018-10-11T03:07:16.264Z,25.90
2018-10-11T03:09:44.145Z,27.02
2018-10-11T03:12:12.581Z,26.57
2018-10-11T03:14:40.664Z,28.35
2018-10-11T03:17:08.813Z,24.52
2018-10-11T03:19:36.797Z,24.50
2018-10-11T03:22:04.433Z,25.30
2018-10-11T03:24:32.130Z,29.50
2018-10-11T03:27:00.457Z,28.70
2018-10-11T03:29:29.155Z,23.95
2018-10-11T03:31:56.849Z,26.17
2018-10-11T03:34:25.384Z,30.02
2018-10-11T03:36:53.349Z,26.48
2018-10-11T03:39:20.953Z,29.20
2018-10-11T03:41:48.670Z,26.12
2018-10-11T03:44:16.314Z,27.07
2018-10-11T03:46:43.889Z,24.70
2018-10-11T03:49:11.498Z,26.25
2018-10-11T03:51:39.469Z,25.85
2018-10-11T03:54:07.090Z,26.27
2018-10-11T03:56:35.542Z,22.65
2018-10-11T03:59:03.298Z,19.98
2018-10-11T04:01:31.150Z,25.17
2018-10-11T04:03:59.636Z,22.40
2018-10-11T04:06:27.392Z,25.40
2018-10-11T04:08:55.668Z,25.80
2018-10-11T04:11:23.281Z,28.90
2018-10-11T04:13:50.973Z,21.45
2018-10-11T04:16:18.716Z,25.25
2018-10-11T04:18:46.424Z,24.32
2018-10-11T04:21:14.401Z,27.62
2018-10-11T04:23:42.152Z,27.93
2018-10-11T04:26:10.018Z,24.90
2018-10-11T04:28:37.889Z,24.60
2018-10-11T04:31:05.761Z,27.22
2018-10-11T04:33:33.496Z,24.30
2018-10-11T04:36:01.198Z,26.30
2018-10-11T04:38:28.947Z,27.02
2018-10-11T04:40:56.537Z,25.88
2018-10-11T04:43:24.261Z,23.98
2018-10-11T04:45:51.961Z,25.77
2018-10-11T04:48:19.655Z,28.85
2018-10-11T04:50:47.313Z,23.12
2018-10-11T04:53:15.163Z,23.20
2018-10-11T04:55:43.801Z,26.73
2018-10-11T04:58:11.653Z,27.93
2018-10-11T05:00:39.527Z,26.25
2018-10-11T05:03:08.169Z,27.80
2018-10-11T05:05:35.819Z,27.32
2018-10-11T05:08:03.482Z,26.33
2018-10-11T05:10:31.258Z,29.37
2018-10-11T05:12:58.974Z,28.95
2018-10-11T05:15:27.854Z,29.65
2018-10-11T05:17:55.849Z,31.93
2018-10-11T05:20:23.571Z,27.87
2018-10-11T05:22:51.392Z,30.32
2018-10-11T05:25:19.169Z,33.00
2018-10-11T05:27:47.022Z,31.57
2018-10-11T05:30:14.742Z,33.70
2018-10-11T05:32:42.603Z,32.65
2018-10-11T05:35:10.341Z,33.38
2018-10-11T05:37:38.014Z,37.25
2018-10-11T05:40:05.763Z,46.15
2018-10-11T05:42:33.521Z,42.53
2018-10-11T05:45:07.295Z,38.63
2018-10-11T05:47:35.269Z,34.88
2018-10-11T05:50:03.140Z,36.93
2018-10-11T05:52:31.088Z,39.20
2018-10-11T05:54:59.280Z,35.30
2018-10-11T05:57:27.468Z,40.12
2018-10-11T05:59:55.856Z,35.28
2018-10-11T06:02:24.079Z,33.30
2018-10-11T06:04:52.561Z,36.20
2018-10-11T06:07:20.319Z,38.85
2018-10-11T06:09:48.049Z,35.80
2018-10-11T06:12:16.135Z,32.15
2018-10-11T06:14:44.114Z,33.88
2018-10-11T06:17:12.050Z,32.73
2018-10-11T06:19:39.868Z,35.63
2018-10-11T06:22:07.771Z,34.38
2018-10-11T06:24:35.594Z,37.95
2018-10-11T06:27:03.538Z,36.53
2018-10-11T06:29:31.280Z,34.58
2018-10-11T06:31:59.244Z,34.20
2018-10-11T06:34:28.307Z,45.08
2018-10-11T06:36:56.452Z,38.02
2018-10-11T06:39:25.457Z,41.98
2018-10-11T06:41:53.579Z,39.27
2018-10-11T06:44:21.365Z,34.78
2018-10-11T06:46:49.134Z,37.80
2018-10-11T06:49:16.840Z,38.35
2018-10-11T06:51:44.707Z,39.73
2018-10-11T06:54:12.756Z,32.00
2018-10-11T06:56:40.455Z,34.20
2018-10-11T06:59:08.350Z,32.35
2018-10-11T07:01:36.007Z,36.50
2018-10-11T07:04:03.932Z,34.00
2018-10-11T07:06:31.681Z,38.58
2018-10-11T07:08:59.380Z,39.50
2018-10-11T07:11:27.154Z,33.78
2018-10-11T07:13:55.343Z,34.63
2018-10-11T07:16:23.107Z,33.60
2018-10-11T07:18:51.109Z,37.53
2018-10-11T07:21:18.969Z,39.25
2018-10-11T07:23:46.790Z,34.10
2018-10-11T07:26:14.623Z,36.53
2018-10-11T07:28:42.532Z,37.95
2018-10-11T07:31:10.359Z,34.65
2018-10-11T07:33:37.996Z,39.65
2018-10-11T07:36:05.847Z,39.65
2018-10-11T07:38:33.531Z,35.33
2018-10-11T07:41:01.300Z,31.82
2018-10-11T07:43:29.543Z,36.63
2018-10-11T07:45:57.620Z,32.78
2018-10-11T07:48:26.024Z,33.28
2018-10-11T07:50:54.512Z,35.35
2018-10-11T07:53:22.310Z,31.40
2018-10-11T07:55:50.065Z,39.53
2018-10-11T07:58:18.003Z,38.00
2018-10-11T08:00:47.024Z,39.63
2018-10-11T08:03:14.954Z,31.12
2018-10-11T08:05:42.738Z,36.83
2018-10-11T08:08:10.685Z,30.70
2018-10-11T08:10:38.571Z,32.60
2018-10-11T08:13:06.653Z,34.15
2018-10-11T08:15:34.393Z,32.53
2018-10-11T08:18:02.214Z,33.80
2018-10-11T08:20:29.792Z,34.15
2018-10-11T08:22:57.494Z,34.13
2018-10-11T08:25:25.440Z,31.25
2018-10-11T08:27:53.461Z,32.98
2018-10-11T08:30:21.309Z,30.10
2018-10-11T08:32:48.959Z,34.73
2018-10-11T08:35:16.617Z,32.95
2018-10-11T08:37:44.965Z,30.35
2018-10-11T08:40:12.538Z,34.10
2018-10-11T08:42:40.245Z,32.35
2018-10-11T08:45:07.954Z,28.02
2018-10-11T08:47:35.970Z,31.35
2018-10-11T08:50:03.993Z,30.65
2018-10-11T08:52:31.910Z,33.42
2018-10-11T08:54:59.586Z,29.63
2018-10-11T08:57:27.436Z,31.42
2018-10-11T08:59:55.363Z,31.17
2018-10-11T09:02:23.236Z,37.70
2018-10-11T09:04:50.967Z,59.00
2018-10-11T09:07:18.715Z,30.68
2018-10-11T09:09:53.439Z,33.18
2018-10-11T09:12:15.470Z,34.27
2018-10-11T09:14:43.647Z,33.55
2018-10-11T09:17:11.396Z,30.53
2018-10-11T09:19:38.998Z,28.32
2018-10-11T09:22:06.773Z,31.90
2018-10-11T09:24:34.522Z,36.00
2018-10-11T09:27:02.387Z,28.53
2018-10-11T09:29:30.133Z,33.27
2018-10-11T09:31:59.186Z,34.27
2018-10-11T09:34:27.054Z,29.20
2018-10-11T09:36:54.769Z,31.23
2018-10-11T09:39:22.528Z,32.07
2018-10-11T09:41:50.266Z,33.20
2018-10-11T09:44:17.958Z,33.90
2018-10-11T09:46:45.573Z,25.30
2018-10-11T09:49:13.289Z,26.93
2018-10-11T09:51:40.875Z,26.50
2018-10-11T09:54:08.591Z,25.30
2018-10-11T09:57:47.745Z,26.70
2018-10-11T10:00:21.069Z,25.10
2018-10-11T10:02:49.573Z,25.83
2018-10-11T10:05:17.393Z,22.40
2018-10-11T10:07:45.125Z,27.37
2018-10-11T10:10:12.942Z,24.63
2018-10-11T10:12:40.672Z,31.87
2018-10-11T10:15:08.830Z,25.83
2018-10-11T10:17:36.772Z,28.83
2018-10-11T10:20:05.551Z,24.30
2018-10-11T10:22:33.266Z,25.97
2018-10-11T10:25:01.102Z,24.77
2018-10-11T10:27:29.691Z,25.67
2018-10-11T10:29:57.475Z,25.53
2018-10-11T10:32:25.363Z,25.13
2018-10-11T10:34:53.917Z,24.80
2018-10-11T10:37:21.584Z,25.50
2018-10-11T10:39:49.394Z,26.50
2018-10-11T10:42:17.150Z,26.93
2018-10-11T10:44:45.184Z,23.27
2018-10-11T10:47:12.947Z,24.43
2018-10-11T10:49:40.752Z,24.30
2018-10-11T10:52:08.622Z,24.83
2018-10-11T10:54:36.469Z,26.43
2018-10-11T10:59:31.969Z,26.60
2018-10-11T11:01:59.676Z,34.43
2018-10-11T11:04:27.398Z,25.00
2018-10-11T11:06:55.196Z,27.13
2018-10-11T11:09:23.094Z,25.93
2018-10-11T11:11:50.998Z,24.80
2018-10-11T11:14:18.739Z,22.63
2018-10-11T11:16:46.661Z,24.67
2018-10-11T11:19:15.239Z,29.13
2018-10-11T11:21:43.325Z,26.43
2018-10-11T11:24:11.640Z,23.87
2018-10-11T11:26:39.307Z,22.93
2018-10-11T11:29:07.205Z,24.00
2018-10-11T11:31:34.906Z,26.53
2018-10-11T11:34:03.169Z,24.30
2018-10-11T11:36:31.062Z,22.30
2018-10-11T11:38:58.814Z,25.10
2018-10-11T11:41:26.634Z,25.67
2018-10-11T11:43:54.418Z,27.57
2018-10-11T11:46:23.128Z,23.70
2018-10-11T11:48:50.888Z,26.97
2018-10-11T11:51:18.821Z,29.73
2018-10-11T11:53:46.502Z,23.33
2018-10-11T11:56:14.199Z,23.30
2018-10-11T11:58:42.260Z,21.60
2018-10-11T12:01:10.979Z,29.60
2018-10-11T12:03:39.499Z,23.77
2018-10-11T12:06:07.754Z,22.90
2018-10-11T12:08:36.470Z,23.77
2018-10-11T12:11:04.227Z,28.67
2018-10-11T12:13:31.898Z,23.40
2018-10-11T12:15:59.580Z,23.30
2018-10-11T12:18:27.250Z,30.83
2018-10-11T12:20:54.977Z,34.97
2018-10-11T12:23:23.316Z,22.00
2018-10-11T12:25:51.023Z,31.87
2018-10-11T12:28:18.889Z,22.80
2018-10-11T12:30:46.586Z,29.03
2018-10-11T12:33:14.443Z,20.50
2018-10-11T12:35:42.221Z,19.50
2018-10-11T12:38:09.824Z,25.27
2018-10-11T12:40:37.811Z,23.80
2018-10-11T12:43:05.534Z,40.87
2018-10-11T12:45:33.247Z,24.37
2018-10-11T12:48:01.078Z,25.87
2018-10-11T12:50:29.481Z,22.77
2018-10-11T12:52:57.167Z,20.23
2018-10-11T12:55:24.964Z,20.50
2018-10-11T12:57:52.686Z,22.03
2018-10-11T13:00:20.591Z,20.53
2018-10-11T13:02:55.258Z,20.50
2018-10-11T13:05:22.917Z,19.53
2018-10-11T13:07:50.647Z,20.17
2018-10-11T13:10:18.419Z,21.33
2018-10-11T13:12:46.273Z,19.77
2018-10-11T13:15:14.296Z,20.20
2018-10-11T13:17:43.646Z,21.07
2018-10-11T13:20:09.742Z,22.07
2018-10-11T13:22:37.439Z,21.93
2018-10-11T13:25:05.234Z,24.37
2018-10-11T13:27:32.949Z,21.23
2018-10-11T13:30:00.888Z,22.07
2018-10-11T13:32:28.793Z,20.83
2018-10-11T13:34:56.569Z,19.40
2018-10-11T13:37:30.751Z,20.60
2018-10-11T13:39:59.296Z,18.00
2018-10-11T13:42:27.154Z,19.33
2018-10-11T13:44:54.876Z,19.33
2018-10-11T13:47:22.632Z,18.50
2018-10-11T13:49:50.316Z,20.70
2018-10-11T13:52:21.683Z,20.03
2018-10-11T13:54:45.757Z,20.70
2018-10-11T13:57:13.607Z,20.00
2018-10-11T13:59:42.099Z,20.83
2018-10-11T14:02:09.913Z,20.07
2018-10-11T14:04:37.820Z,19.93
2018-10-11T14:07:05.673Z,20.57
2018-10-11T14:09:33.363Z,20.17
2018-10-11T14:12:01.173Z,18.63
2018-10-11T14:14:29.598Z,20.50
2018-10-11T14:16:57.323Z,20.13
2018-10-11T14:19:25.117Z,20.50
2018-10-11T14:21:52.863Z,20.97
2018-10-11T14:24:20.812Z,25.27
2018-10-11T14:26:48.825Z,22.13
2018-10-11T14:29:16.837Z,18.70
2018-10-11T14:31:44.652Z,17.43
2018-10-11T14:34:12.395Z,16.93
2018-10-11T14:36:40.226Z,19.37
2018-10-11T14:39:08.545Z,18.47
2018-10-11T14:41:36.586Z,18.07
2018-10-11T14:44:04.923Z,16.17
2018-10-11T14:46:32.814Z,18.07
2018-10-11T14:49:00.639Z,18.73
2018-10-11T14:51:28.594Z,17.13
2018-10-11T14:53:58.877Z,16.63
2018-10-11T14:56:24.235Z,16.63
2018-10-11T14:58:52.000Z,18.20
2018-10-11T15:01:20.345Z,17.57
2018-10-11T15:03:48.532Z,15.20
2018-10-11T15:06:18.784Z,14.73
2018-10-11T15:08:47.163Z,19.00
2018-10-11T15:11:15.093Z,18.17
2018-10-11T15:13:42.875Z,18.90
2018-10-11T15:16:11.672Z,17.00
2018-10-11T15:18:39.486Z,17.10
2018-10-11T15:21:07.817Z,17.00
2018-10-11T15:23:35.537Z,15.87
2018-10-11T15:26:03.531Z,18.23
2018-10-11T15:28:31.194Z,17.60
2018-10-11T15:30:58.969Z,16.00
2018-10-11T15:33:26.623Z,14.97
2018-10-11T15:35:54.278Z,15.70
2018-10-11T15:38:22.311Z,17.00
2018-10-11T15:40:50.073Z,15.63
2018-10-11T15:43:18.473Z,15.23
2018-10-11T15:45:46.251Z,19.23
2018-10-11T15:48:14.292Z,17.40
2018-10-11T15:50:42.227Z,20.53
2018-10-11T15:53:11.321Z,16.23
2018-10-11T15:55:39.181Z,16.83
2018-10-11T15:58:09.194Z,15.60
2018-10-11T16:00:37.894Z,19.10
2018-10-11T16:03:06.022Z,16.20
2018-10-11T16:05:34.484Z,17.73
2018-10-11T16:08:03.513Z,15.67
2018-10-11T16:10:31.326Z,15.67
2018-10-11T16:12:59.200Z,14.70
2018-10-11T16:15:27.885Z,16.87
2018-10-11T16:17:56.803Z,16.20
2018-10-11T16:20:24.955Z,16.30
2018-10-11T16:22:53.335Z,19.03
2018-10-11T16:25:20.990Z,16.43
2018-10-11T16:27:48.883Z,15.70
2018-10-11T16:30:17.029Z,18.20
2018-10-11T16:32:45.050Z,16.60
2018-10-11T16:35:14.103Z,19.10
2018-10-11T16:37:41.926Z,15.90
2018-10-11T16:40:09.729Z,17.13
2018-10-11T16:42:37.559Z,14.50
2018-10-11T16:45:05.629Z,15.37
2018-10-11T16:47:33.847Z,15.80
2018-10-11T16:50:02.157Z,20.03
2018-10-11T16:52:30.079Z,19.60
2018-10-11T16:54:58.054Z,17.93
2018-10-11T16:57:26.425Z,15.90
2018-10-11T16:59:54.239Z,18.47
2018-10-11T17:02:22.154Z,16.10
2018-10-11T17:04:51.265Z,17.50
2018-10-11T17:07:19.238Z,16.50
2018-10-11T17:09:48.345Z,25.80
2018-10-11T17:12:22.825Z,20.27
2018-10-11T17:14:50.832Z,19.80
2018-10-11T17:17:19.800Z,19.63
2018-10-11T17:19:48.538Z,19.17
2018-10-11T17:22:20.066Z,20.63
2018-10-11T17:24:48.255Z,21.87
2018-10-11T17:27:17.023Z,18.60
2018-10-11T17:29:46.410Z,18.57
2018-10-11T17:32:15.613Z,18.23
2018-10-11T17:34:44.871Z,18.07
2018-10-11T17:37:12.777Z,17.57
2018-10-11T17:39:41.411Z,20.60
2018-10-11T17:42:10.118Z,17.57
2018-10-11T17:44:38.547Z,24.20
2018-10-11T17:47:06.904Z,18.13
2018-10-11T17:49:34.640Z,17.53
2018-10-11T17:52:03.155Z,16.80
2018-10-11T17:54:31.747Z,17.60
2018-10-11T17:57:00.606Z,16.53
2018-10-11T17:59:28.816Z,19.10
2018-10-11T18:01:57.940Z,17.23
2018-10-11T18:04:26.720Z,20.57
2018-10-11T18:06:54.621Z,20.35
2018-10-11T18:09:23.626Z,21.03
2018-10-11T18:11:51.311Z,20.50
2018-10-11T18:14:19.137Z,18.87
2018-10-11T18:16:51.845Z,23.33
2018-10-11T18:19:19.642Z,18.70
2018-10-11T18:21:48.131Z,19.02
2018-10-11T18:24:15.838Z,19.82
2018-10-11T18:26:43.847Z,29.55
2018-10-11T18:29:11.787Z,22.32
2018-10-11T18:31:39.777Z,20.80
2018-10-11T18:34:07.584Z,23.12
2018-10-11T18:36:40.060Z,21.45
2018-10-11T18:39:11.853Z,20.70
2018-10-11T18:41:40.237Z,19.25
2018-10-11T18:44:08.478Z,20.25
2018-10-11T18:46:37.127Z,19.07
2018-10-11T18:49:05.206Z,19.10
2018-10-11T18:51:33.239Z,14.28
2018-10-11T18:54:03.200Z,14.90
2018-10-11T18:56:30.987Z,13.53
2018-10-11T18:58:59.202Z,15.17
2018-10-11T19:01:27.141Z,18.47
2018-10-11T19:03:59.082Z,18.40
2018-10-11T19:06:27.632Z,19.10
2018-10-11T19:08:59.749Z,18.17
2018-10-11T19:11:27.664Z,16.93
2018-10-11T19:14:02.183Z,17.33
2018-10-11T19:16:31.071Z,17.17
2018-10-11T19:19:00.175Z,16.37
2018-10-11T19:21:30.277Z,16.90
2018-10-11T19:24:00.427Z,16.90
2018-10-11T19:26:29.012Z,17.93
2018-10-11T19:28:57.636Z,23.87
2018-10-11T19:31:26.594Z,18.70
2018-10-11T19:33:54.582Z,18.10
2018-10-11T19:36:22.553Z,16.30
2018-10-11T19:38:50.420Z,17.70
2018-10-11T19:41:21.197Z,16.90
2018-10-11T19:43:50.785Z,19.53
2018-10-11T19:46:21.038Z,21.40
2018-10-11T19:48:50.707Z,21.82
2018-10-11T19:51:19.249Z,20.33
2018-10-11T19:53:50.183Z,20.70
2018-10-11T19:56:18.829Z,22.32
2018-10-11T19:58:51.816Z,23.67
2018-10-11T20:01:21.794Z,21.62
2018-10-11T20:03:50.349Z,23.70
2018-10-11T20:06:19.166Z,25.65
2018-10-11T20:08:48.603Z,21.95
2018-10-11T20:11:17.424Z,23.10
2018-10-11T20:13:45.703Z,21.57
2018-10-11T20:16:14.191Z,23.75
2018-10-11T20:18:42.630Z,23.87
2018-10-11T20:21:11.427Z,21.77
2018-10-11T20:23:40.885Z,25.90
2018-10-11T20:26:09.884Z,21.10
2018-10-11T20:28:39.399Z,26.80
2018-10-11T20:31:07.822Z,22.02
2018-10-11T20:33:37.455Z,22.77
2018-10-11T20:36:10.765Z,22.87
2018-10-11T20:38:39.360Z,21.62
2018-10-11T20:41:08.193Z,21.87
2018-10-11T20:43:37.066Z,21.05
2018-10-11T20:46:06.562Z,23.85
2018-10-11T20:48:36.788Z,23.00
2018-10-11T20:51:05.759Z,23.65
2018-10-11T20:53:35.541Z,24.37
2018-10-11T20:56:05.132Z,24.00
2018-10-11T21:01:02.095Z,24.23
2018-10-11T21:03:46.963Z,21.30
2018-10-11T21:06:20.970Z,22.45
2018-10-11T21:08:50.634Z,23.32
2018-10-11T21:11:21.609Z,22.35
2018-10-11T21:13:51.137Z,20.10
2018-10-11T21:16:27.144Z,19.45
2018-10-11T21:18:56.961Z,19.57
2018-10-11T21:21:26.771Z,20.77
2018-10-11T21:23:56.658Z,20.50
2018-10-11T21:26:25.463Z,19.98
2018-10-11T21:28:54.015Z,20.40
2018-10-11T21:31:23.649Z,21.30
2018-10-11T21:33:52.144Z,21.65
2018-10-11T21:36:22.346Z,20.72
2018-10-11T21:38:52.621Z,20.50
2018-10-11T21:41:22.874Z,21.02
2018-10-11T21:43:51.426Z,20.32
2018-10-11T21:46:27.236Z,22.98
2018-10-11T21:49:04.877Z,18.67
2018-10-11T21:51:33.435Z,19.17
2018-10-11T21:54:03.875Z,19.02
2018-10-11T21:56:32.973Z,19.23
2018-10-11T21:59:16.032Z,19.00
2018-10-11T22:01:49.488Z,19.52
2018-10-11T22:04:17.961Z,20.27
2018-10-11T22:06:50.947Z,17.87
2018-10-11T22:09:23.317Z,20.40
2018-10-11T22:11:58.556Z,18.02
2018-10-11T22:14:28.892Z,18.65
2018-10-11T22:16:59.880Z,18.12
2018-10-11T22:19:32.453Z,19.12
2018-10-11T22:22:01.935Z,19.32
2018-10-11T22:24:31.126Z,17.82
2018-10-11T22:26:59.850Z,18.05
2018-10-11T22:29:29.168Z,18.45
2018-10-11T22:31:58.589Z,18.02
2018-10-11T22:34:28.655Z,19.40
2018-10-11T22:36:57.294Z,19.98
2018-10-11T22:39:26.695Z,20.23
2018-10-11T22:42:01.386Z,19.07
2018-10-11T22:47:00.335Z,19.67
2018-10-11T22:49:33.072Z,21.23
2018-10-11T22:52:01.235Z,22.50
2018-10-11T22:54:31.473Z,25.80
2018-10-11T22:57:01.521Z,22.05
2018-10-11T22:59:32.602Z,20.92
2018-10-11T23:02:00.908Z,22.40
2018-10-11T23:04:29.671Z,21.55
2018-10-11T23:06:58.738Z,23.38
2018-10-11T23:09:27.509Z,23.80
2018-10-11T23:12:02.402Z,23.90
2018-10-11T23:14:31.130Z,22.13
2018-10-11T23:17:01.622Z,23.57
2018-10-11T23:19:31.134Z,23.60
2018-10-11T23:22:03.619Z,24.72
2018-10-11T23:24:31.808Z,23.60
2018-10-11T23:27:00.844Z,24.57
2018-10-11T23:29:30.454Z,26.20
2018-10-11T23:31:59.340Z,23.98
2018-10-11T23:34:27.486Z,22.45
2018-10-11T23:36:56.589Z,24.07
2018-10-11T23:39:25.865Z,22.48
2018-10-11T23:41:54.292Z,22.80
2018-10-11T23:44:23.405Z,24.87
2018-10-11T23:46:53.581Z,22.15
